Mcbride, Canada
Current Conditions -  °F | °C
As of 5:30 AM on Sunday 23 Nov 2014 (Local Time) from CYQZ Reporting Station
Light Snow Light Snow  
Wind Chill: 24°   Ceiling: 2000
Heat Index: 32°   Visibility: 2.2mi
Dew Point: 30°   Wind: 10mph
Humidity: 93%   Direction: 150°SSE
Pressure: 29.74"   Gusts: NA
Location:  53.3°N, 120.17°W
Report Text: CYQZ 231330Z AUTO 15009KT 2 1/4SM -SN OVC020 00/M01 A2974 RMK VIS VRB 1 1/4-2 1/2 SLP098
Loading
Personal Weather Stations






























Interactive Weather Map New forecast layout! Learn more

10-Day Weather Forecast

Advertisements
Track Severe Weather on mobile